Nogales, AZ (85662)

7:02 AM MST on January 31, 2015 (GMT -0700)
Campana Plaza, I-19 & Mariposa | Change Station
CLOSE
Current Station
Personal Weather Station
Location: Nogales, AZ
Elevation: 3815 ft
Nearby Weather Stations

Elev 3815 ft 31.36 °N, 110.95 °W | Updated 18 seconds ago

Overcast
Overcast
46.8 °F
Feels Like 47 °F
N
0.0
Wind Variable Wind from SE
Gusts 0.0 mph

Today
High -- | Low -- °F
--% Chance of Precip.
Yesterday
High -- | Low -- °F
Precip. -- in
7:16 AM 5:57 PM
Waxing Gibbous, 90% visible
Pressure 29.76 in
Visibility 10.0 miles
Clouds Few 3000 ft
Few 4700 ft
Overcast 6500 ft
Windchill 47 °F
Dew Point 40 °F
Humidity 77%
Rainfall 0.71 in
Snow Depth Not available.
UV 0 out of 12
Pollen .50 out of 12
Air Quality Not available.
Flu Activity Not available.
METAR KOLS 311354Z AUTO 18003KT 10SM -RA FEW030 FEW047 OVC065 08/07 A2984 RMK AO2 SLP076 P0001 T00830072

More Conditions Fewer Conditions

Pressure 29.76 in
Visibility 10.0 miles
Clouds Few 3000 ft
Few 4700 ft
Overcast 6500 ft
Windchill 47 °F
Dew Point 40 °F
Humidity 77%
Rainfall 0.71 in
Snow Depth Not available.
UV 0 out of 12
Pollen .50 out of 12
Air Quality Not available.
Flu Activity Not available.
METAR KOLS 311354Z AUTO 18003KT 10SM -RA FEW030 FEW047 OVC065 08/07 A2984 RMK AO2 SLP076 P0001 T00830072

More Conditions Fewer Conditions

Nowcast | as of 6:09 am MST on January 31, 2015

Showers will continue across Southeast Arizona through 8 am. Some of these showers will produce moderate rain with rainfall rates of two to three tenths of an inch per hour. Movement of the showers is generally to the northeast 15 to 25 mph. Periods of snow will continue this morning above 7500 feet.

×

10-Day Weather Forecast

Almanac

Astronomy

Jan. 31, 2015 Rise Set
Actual Time
Civil Twilight
Nautical Twilight
Astronomical Twilight
Moon
Length of Visible Light
Length of Day
Tomorrow will be .
, % of the Moon is Illuminated

Today's Extremes

State Highs State Lows

Community

WunderPhotos

Upload Photos

1,792,058 photos uploaded!

WunderBlogs® & News

Nearby

Air Quality

  Air Quality AQ Index Pollutant
Not available.

Snow Depth

Station Depth Elevation

Earthquake Activity

City Distance Mag. Time & Date
Minimum magnitude displayed is 2.5.

Coastal Water Temperatures

Place Temperature

Nearby Weather Stations